Time;durP1;ratioP1;P1;durP2;ratioP2;P2;SDS_P1;SDS_P2;PMS_P1;PMS_P2;Temp;Humidity;BMP_temperature;BMP_pressure;BME280_temperature;BME280_humidity;BME280_pressure;Samples;Min_cycle;Max_cycle;Signal;HPM_P1;HPM_P2
2022/05/03 00:01:51;;;;;;;;;;;;;;;;;;5081940;28;20385;-61
2022/05/03 00:04:17;;;;;;;;;;;;;;;;;;5083366;28;20589;-60
2022/05/03 00:06:43;;;;;;;;;;;;;;;;;;5086258;28;20193;-61
2022/05/03 00:09:09;;;;;;;;;;;;;;;;;;5084961;28;19928;-64
2022/05/03 00:11:35;;;;;;;;;;;;;;;;;;5076941;28;19928;-60
2022/05/03 00:14:02;;;;;;;;;;;;;;;;;;5084229;28;20389;-60
2022/05/03 00:16:28;;;;;;;;;;;;;;;;;;5075811;28;19995;-61
2022/05/03 00:18:54;;;;;;;;;;;;;;;;;;5081757;28;19931;-61
2022/05/03 00:21:21;;;;;;;;;;;;;;;;;;5080334;28;19962;-61
2022/05/03 00:23:47;;;;;;;;;;;;;;;;;;5085290;28;19932;-61
2022/05/03 00:26:13;;;;;;;;;;;;;;;;;;5084053;28;19939;-61
2022/05/03 00:28:39;;;;;;;;;;;;;;;;;;5079052;28;19928;-60
2022/05/03 00:31:05;;;;;;;;;;;;;;;;;;5079907;28;19931;-60
2022/05/03 00:33:41;;;;;;;;;;;;;;;;;;5063757;28;10000590;-60
2022/05/03 00:36:07;;;;;;;;;;;;;;;;;;5080174;28;19934;-61
2022/05/03 00:38:34;;;;;;;;;;;;;;;;;;5081010;28;19934;-60
2022/05/03 00:41:00;;;;;;;;;;;;;;;;;;5084788;28;20012;-62
2022/05/03 00:43:27;;;;;;;;;;;;;;;;;;5073715;28;19931;-62
2022/05/03 00:45:53;;;;;;;;;;;;;;;;;;5085813;28;19935;-61
2022/05/03 00:48:19;;;;;;;;;;;;;;;;;;5085441;28;19924;-62
2022/05/03 00:50:45;;;;;;;;;;;;;;;;;;5084219;28;19932;-62
2022/05/03 00:53:11;;;;;;;;;;;;;;;;;;5089348;28;20382;-63
2022/05/03 00:55:37;;;;;;;;;;;;;;;;;;5080044;28;20417;-62
2022/05/03 00:58:03;;;;;;;;;;;;;;;;;;5082399;28;20313;-62
2022/05/03 01:00:30;;;;;;;;;;;;;;;;;;5086282;28;19924;-63
2022/05/03 01:02:56;;;;;;;;;;;;;;;;;;5087080;28;19995;-62
2022/05/03 01:05:22;;;;;;;;;;;;;;;;;;5086671;28;19939;-61
2022/05/03 01:07:49;;;;;;;;;;;;;;;;;;5084876;28;20369;-66
2022/05/03 01:10:15;;;;;;;;;;;;;;;;;;5090628;22;20019;-63
2022/05/03 01:12:41;;;;;;;;;;;;;;;;;;5067302;28;19924;-61
2022/05/03 01:15:07;;;;;;;;;;;;;;;;;;5068844;28;19940;-62
2022/05/03 01:17:34;;;;;;;;;;;;;;;;;;5051925;28;20378;-59
2022/05/03 01:20:00;;;;;;;;;;;;;;;;;;5047527;28;19931;-58
2022/05/03 01:22:26;;;;;;;;;;;;;;;;;;5046335;28;19937;-59
2022/05/03 01:24:52;;;;;;;;;;;;;;;;;;5047373;28;19925;-60
2022/05/03 01:27:19;;;;;;;;;;;;;;;;;;5046713;28;20301;-61
2022/05/03 01:29:45;;;;;;;;;;;;;;;;;;5046429;28;19968;-66
2022/05/03 01:32:11;;;;;;;;;;;;;;;;;;5049050;28;20358;-67
2022/05/03 01:34:37;;;;;;;;;;;;;;;;;;5048102;28;19925;-61
2022/05/03 01:37:04;;;;;;;;;;;;;;;;;;5045370;28;19935;-64
2022/05/03 01:39:30;;;;;;;;;;;;;;;;;;5046942;28;19937;-64
2022/05/03 01:41:56;;;;;;;;;;;;;;;;;;5046959;28;19924;-63
2022/05/03 01:44:22;;;;;;;;;;;;;;;;;;5046378;28;19924;-63
2022/05/03 01:46:48;;;;;;;;;;;;;;;;;;5046549;28;19929;-61
2022/05/03 01:51:58;;;;;;;;;;;;;;;;;;5045393;28;20392;-63
2022/05/03 01:54:25;;;;;;;;;;;;;;;;;;5042838;28;20370;-63
2022/05/03 01:56:51;;;;;;;;;;;;;;;;;;5043030;28;20459;-62
2022/05/03 01:59:17;;;;;;;;;;;;;;;;;;5044181;28;20309;-66
2022/05/03 02:01:43;;;;;;;;;;;;;;;;;;5046158;28;19928;-66
2022/05/03 02:04:09;;;;;;;;;;;;;;;;;;5045898;28;19932;-66
2022/05/03 02:06:35;;;;;;;;;;;;;;;;;;5041276;28;19955;-68
2022/05/03 02:09:02;;;;;;;;;;;;;;;;;;5047379;28;19943;-62
2022/05/03 02:11:28;;;;;;;;;;;;;;;;;;5043379;28;19932;-64
2022/05/03 02:16:38;;;;;;;;;;;;;;;;;;5046112;28;20340;-63
2022/05/03 02:19:04;;;;;;;;;;;;;;;;;;5045441;28;20293;-64
2022/05/03 02:21:30;;;;;;;;;;;;;;;;;;5044915;28;20262;-63
2022/05/03 02:23:56;;;;;;;;;;;;;;;;;;5044726;28;20293;-62
2022/05/03 02:26:22;;;;;;;;;;;;;;;;;;5046126;28;20408;-61
2022/05/03 02:28:48;;;;;;;;;;;;;;;;;;5045079;28;20003;-63
2022/05/03 02:31:14;;;;;;;;;;;;;;;;;;5044927;28;19948;-65
2022/05/03 02:33:42;;;;;;;;;;;;;;;;;;5041485;28;19929;-64
2022/05/03 02:36:08;;;;;;;;;;;;;;;;;;5046326;28;19931;-66
2022/05/03 02:38:34;;;;;;;;;;;;;;;;;;5046697;28;19933;-66
2022/05/03 02:41:00;;;;;;;;;;;;;;;;;;5046461;28;20019;-67
2022/05/03 02:43:26;;;;;;;;;;;;;;;;;;5041226;28;20477;-67
2022/05/03 02:45:53;;;;;;;;;;;;;;;;;;5045720;28;19924;-69
2022/05/03 02:48:19;;;;;;;;;;;;;;;;;;5044464;28;19929;-66
2022/05/03 02:50:45;;;;;;;;;;;;;;;;;;5046007;28;19925;-68
2022/05/03 02:53:11;;;;;;;;;;;;;;;;;;5046514;28;20436;-62
2022/05/03 02:55:37;;;;;;;;;;;;;;;;;;5045049;28;20362;-62
2022/05/03 02:58:03;;;;;;;;;;;;;;;;;;5045354;28;20317;-63
2022/05/03 03:03:13;;;;;;;;;;;;;;;;;;5042047;28;20017;-63
2022/05/03 03:05:40;;;;;;;;;;;;;;;;;;5047076;28;19931;-62
2022/05/03 03:08:06;;;;;;;;;;;;;;;;;;5044607;28;19932;-62
2022/05/03 03:10:32;;;;;;;;;;;;;;;;;;5042912;28;19932;-61
2022/05/03 03:12:58;;;;;;;;;;;;;;;;;;5045420;28;19932;-61
2022/05/03 03:15:24;;;;;;;;;;;;;;;;;;5045503;28;19932;-61
2022/05/03 03:17:51;;;;;;;;;;;;;;;;;;5046091;28;20388;-63
2022/05/03 03:20:17;;;;;;;;;;;;;;;;;;5041802;28;20020;-62
2022/05/03 03:22:43;;;;;;;;;;;;;;;;;;5044840;28;19924;-64
2022/05/03 03:25:09;;;;;;;;;;;;;;;;;;5045172;28;20231;-65
2022/05/03 03:27:35;;;;;;;;;;;;;;;;;;5043126;28;19933;-65
2022/05/03 03:30:01;;;;;;;;;;;;;;;;;;5045205;28;19925;-64
2022/05/03 03:32:27;;;;;;;;;;;;;;;;;;5048120;28;20023;-65
2022/05/03 03:34:53;;;;;;;;;;;;;;;;;;5047428;28;19955;-65
2022/05/03 03:37:20;;;;;;;;;;;;;;;;;;5047665;28;19924;-64
2022/05/03 03:39:46;;;;;;;;;;;;;;;;;;5049441;28;19951;-63
2022/05/03 03:42:12;;;;;;;;;;;;;;;;;;5045706;28;19940;-62
2022/05/03 03:44:38;;;;;;;;;;;;;;;;;;5049261;28;19936;-64
2022/05/03 03:47:04;;;;;;;;;;;;;;;;;;5047573;28;20242;-63
2022/05/03 03:49:30;;;;;;;;;;;;;;;;;;5047644;28;21369;-63
2022/05/03 03:51:56;;;;;;;;;;;;;;;;;;5047844;28;19932;-64
2022/05/03 03:54:23;;;;;;;;;;;;;;;;;;5047949;28;19937;-60
2022/05/03 03:56:49;;;;;;;;;;;;;;;;;;5045808;28;20416;-61
2022/05/03 03:59:16;;;;;;;;;;;;;;;;;;5047829;28;19948;-60
2022/05/03 04:01:43;;;;;;;;;;;;;;;;;;5047136;28;19931;-60
2022/05/03 04:04:09;;;;;;;;;;;;;;;;;;5046495;28;20011;-60
2022/05/03 04:06:35;;;;;;;;;;;;;;;;;;5043271;28;19925;-60
2022/05/03 04:09:01;;;;;;;;;;;;;;;;;;5047180;28;19939;-61
2022/05/03 04:11:27;;;;;;;;;;;;;;;;;;5047963;28;20329;-61
2022/05/03 04:13:53;;;;;;;;;;;;;;;;;;5048903;28;19943;-60
2022/05/03 04:16:19;;;;;;;;;;;;;;;;;;5048173;28;19935;-68
2022/05/03 04:18:46;;;;;;;;;;;;;;;;;;5046814;28;19936;-63
2022/05/03 04:21:12;;;;;;;;;;;;;;;;;;5045024;28;19928;-63
2022/05/03 04:23:38;;;;;;;;;;;;;;;;;;5048242;28;19929;-65
2022/05/03 04:26:04;;;;;;;;;;;;;;;;;;5050578;28;19939;-64
2022/05/03 04:28:31;;;;;;;;;;;;;;;;;;5048421;28;20172;-66
2022/05/03 04:30:57;;;;;;;;;;;;;;;;;;5048789;28;20378;-64
2022/05/03 04:33:23;;;;;;;;;;;;;;;;;;5048090;28;20341;-64
2022/05/03 04:35:49;;;;;;;;;;;;;;;;;;5048181;28;20014;-65
2022/05/03 04:38:15;;;;;;;;;;;;;;;;;;5041698;28;19929;-65
2022/05/03 04:40:41;;;;;;;;;;;;;;;;;;5048290;28;19932;-67
2022/05/03 04:43:07;;;;;;;;;;;;;;;;;;5044616;28;19932;-67
2022/05/03 04:45:33;;;;;;;;;;;;;;;;;;5050612;28;19944;-66
2022/05/03 04:48:00;;;;;;;;;;;;;;;;;;5045286;28;19943;-67
2022/05/03 04:50:26;;;;;;;;;;;;;;;;;;5047401;28;19933;-65
2022/05/03 04:52:52;;;;;;;;;;;;;;;;;;5047293;28;19925;-64
2022/05/03 04:55:18;;;;;;;;;;;;;;;;;;5056270;28;19924;-65
2022/05/03 04:57:44;;;;;;;;;;;;;;;;;;5050483;28;19925;-66
2022/05/03 05:00:10;;;;;;;;;;;;;;;;;;5050541;28;19947;-68
2022/05/03 05:02:37;;;;;;;;;;;;;;;;;;5050861;28;19924;-64
2022/05/03 05:05:03;;;;;;;;;;;;;;;;;;5051010;28;20171;-72
2022/05/03 05:07:29;;;;;;;;;;;;;;;;;;5050942;28;19945;-71
2022/05/03 05:12:48;;;;;;;;;;;;;;;;;;5008922;28;19921;-69
2022/05/03 05:15:14;;;;;;;;;;;;;;;;;;5049387;28;20024;-68
2022/05/03 05:17:40;;;;;;;;;;;;;;;;;;5043847;28;19925;-68
2022/05/03 05:20:09;;;;;;;;;;;;;;;;;;4450498;28;10000685;-68
2022/05/03 05:22:36;;;;;;;;;;;;;;;;;;5039494;28;19929;-68
2022/05/03 05:25:02;;;;;;;;;;;;;;;;;;5048542;28;19928;-71
2022/05/03 05:27:28;;;;;;;;;;;;;;;;;;5047854;28;19925;-69
2022/05/03 05:29:54;;;;;;;;;;;;;;;;;;5048684;28;19932;-68
2022/05/03 05:32:20;;;;;;;;;;;;;;;;;;5045714;28;20044;-69
2022/05/03 05:34:46;;;;;;;;;;;;;;;;;;5048230;28;19932;-69
2022/05/03 05:37:12;;;;;;;;;;;;;;;;;;5046465;28;20627;-69
2022/05/03 05:39:39;;;;;;;;;;;;;;;;;;5046740;28;20008;-69
2022/05/03 05:42:05;;;;;;;;;;;;;;;;;;5046427;28;19929;-69
2022/05/03 05:44:31;;;;;;;;;;;;;;;;;;5046266;28;19957;-69
2022/05/03 05:46:57;;;;;;;;;;;;;;;;;;5045849;28;19925;-69
2022/05/03 05:49:23;;;;;;;;;;;;;;;;;;5045574;28;20425;-68
2022/05/03 05:51:49;;;;;;;;;;;;;;;;;;5046033;28;19924;-68
2022/05/03 05:54:16;;;;;;;;;;;;;;;;;;5045712;28;19929;-69
2022/05/03 05:56:42;;;;;;;;;;;;;;;;;;5046415;28;19921;-68
2022/05/03 05:59:08;;;;;;;;;;;;;;;;;;5046207;28;20441;-69
2022/05/03 06:01:34;;;;;;;;;;;;;;;;;;5045205;28;20457;-69
2022/05/03 06:04:01;;;;;;;;;;;;;;;;;;5044794;28;19971;-69
2022/05/03 06:06:27;;;;;;;;;;;;;;;;;;5046156;28;19929;-70
2022/05/03 06:08:53;;;;;;;;;;;;;;;;;;5046182;28;19944;-70
2022/05/03 06:11:19;;;;;;;;;;;;;;;;;;5045970;28;19929;-70
2022/05/03 06:13:45;;;;;;;;;;;;;;;;;;5045404;28;19929;-70
2022/05/03 06:16:11;;;;;;;;;;;;;;;;;;5038475;28;19936;-70
2022/05/03 06:18:37;;;;;;;;;;;;;;;;;;5045611;28;20569;-69
2022/05/03 06:21:05;;;;;;;;;;;;;;;;;;5038032;28;19929;-70
2022/05/03 06:23:31;;;;;;;;;;;;;;;;;;5038091;28;20000;-68
2022/05/03 06:25:58;;;;;;;;;;;;;;;;;;5045593;28;19925;-70
2022/05/03 06:28:24;;;;;;;;;;;;;;;;;;5045764;28;19955;-70
2022/05/03 06:30:50;;;;;;;;;;;;;;;;;;5045665;28;19929;-69
2022/05/03 06:33:16;;;;;;;;;;;;;;;;;;5045093;28;19928;-69
2022/05/03 06:35:42;;;;;;;;;;;;;;;;;;5045711;28;19928;-69
2022/05/03 06:38:08;;;;;;;;;;;;;;;;;;5047360;28;19936;-70
2022/05/03 06:40:35;;;;;;;;;;;;;;;;;;5046264;28;19935;-70
2022/05/03 06:43:01;;;;;;;;;;;;;;;;;;5044501;28;19935;-70
2022/05/03 06:45:27;;;;;;;;;;;;;;;;;;5045182;28;19929;-70
2022/05/03 06:47:53;;;;;;;;;;;;;;;;;;5045570;28;19951;-69
2022/05/03 06:50:19;;;;;;;;;;;;;;;;;;5045382;28;19929;-69
2022/05/03 06:52:45;;;;;;;;;;;;;;;;;;5045387;28;19929;-70
2022/05/03 06:55:12;;;;;;;;;;;;;;;;;;5043924;28;19928;-69
2022/05/03 06:57:38;;;;;;;;;;;;;;;;;;5044870;28;19932;-70
2022/05/03 07:00:05;;;;;;;;;;;;;;;;;;5044412;28;19932;-69
2022/05/03 07:02:34;;;;;;;;;;;;;;;;;;5044946;28;20008;-69
2022/05/03 07:05:00;;;;;;;;;;;;;;;;;;5046228;28;19929;-69
2022/05/03 07:07:26;;;;;;;;;;;;;;;;;;5049320;28;19955;-69
2022/05/03 07:09:53;;;;;;;;;;;;;;;;;;5049279;28;19963;-69
2022/05/03 07:12:19;;;;;;;;;;;;;;;;;;5049211;28;19928;-70
2022/05/03 07:14:45;;;;;;;;;;;;;;;;;;5048759;28;20368;-70
2022/05/03 07:22:45;;;;;;;;;;;;;;;;;;5041799;28;20306;-69
2022/05/03 07:22:48;;;;;;;;;;;;;;;;;;5043090;28;19923;-69
2022/05/03 07:25:17;;;;;;;;;;;;;;;;;;5049315;28;19929;-70
2022/05/03 07:27:43;;;;;;;;;;;;;;;;;;5047467;28;19925;-69
2022/05/03 07:30:09;;;;;;;;;;;;;;;;;;5049212;28;19925;-70
2022/05/03 07:32:35;;;;;;;;;;;;;;;;;;5048803;28;19932;-69
2022/05/03 07:35:01;;;;;;;;;;;;;;;;;;5049578;28;19924;-70
2022/05/03 07:37:27;;;;;;;;;;;;;;;;;;5048753;28;19929;-70
2022/05/03 07:39:54;;;;;;;;;;;;;;;;;;5049011;28;19929;-69
2022/05/03 07:42:20;;;;;;;;;;;;;;;;;;5049112;28;20452;-71
2022/05/03 07:44:46;;;;;;;;;;;;;;;;;;5048812;28;19929;-69
2022/05/03 07:47:12;;;;;;;;;;;;;;;;;;5049881;28;19924;-69
2022/05/03 07:49:38;;;;;;;;;;;;;;;;;;5048400;28;19929;-70
2022/05/03 07:52:04;;;;;;;;;;;;;;;;;;5048183;28;19932;-70
2022/05/03 07:54:30;;;;;;;;;;;;;;;;;;5048173;28;20251;-70
2022/05/03 07:56:57;;;;;;;;;;;;;;;;;;5048752;28;19935;-70
2022/05/03 07:59:23;;;;;;;;;;;;;;;;;;5048300;28;19932;-70
2022/05/03 08:01:49;;;;;;;;;;;;;;;;;;5048649;28;20023;-70
2022/05/03 08:04:15;;;;;;;;;;;;;;;;;;5048133;28;19925;-70
2022/05/03 08:06:41;;;;;;;;;;;;;;;;;;5048313;28;20456;-71
2022/05/03 08:09:07;;;;;;;;;;;;;;;;;;5048296;28;20768;-70
2022/05/03 08:11:33;;;;;;;;;;;;;;;;;;5048959;28;19929;-70
2022/05/03 08:14:00;;;;;;;;;;;;;;;;;;5048318;28;19928;-70
2022/05/03 08:16:27;;;;;;;;;;;;;;;;;;5047806;28;19936;-70
2022/05/03 08:18:53;;;;;;;;;;;;;;;;;;5047753;28;19933;-70
2022/05/03 08:21:19;;;;;;;;;;;;;;;;;;5040091;28;19929;-70
2022/05/03 08:23:45;;;;;;;;;;;;;;;;;;5048881;28;19928;-70
2022/05/03 08:26:11;;;;;;;;;;;;;;;;;;5048820;28;19936;-69
2022/05/03 08:28:37;;;;;;;;;;;;;;;;;;5048428;28;19948;-70
2022/05/03 08:31:04;;;;;;;;;;;;;;;;;;5048476;28;19935;-69
2022/05/03 08:33:30;;;;;;;;;;;;;;;;;;5048288;28;19929;-69
2022/05/03 08:35:56;;;;;;;;;;;;;;;;;;5048204;28;21661;-70
2022/05/03 08:43:50;;;;;;;;;;;;;;;;;;5048136;28;20065;-69
2022/05/03 08:46:17;;;;;;;;;;;;;;;;;;5046151;28;20308;-69
2022/05/03 08:48:44;;;;;;;;;;;;;;;;;;5048135;28;19982;-69
2022/05/03 08:51:10;;;;;;;;;;;;;;;;;;5047754;28;19955;-69
2022/05/03 08:53:36;;;;;;;;;;;;;;;;;;5047361;28;20374;-70
2022/05/03 08:56:02;;;;;;;;;;;;;;;;;;5047711;28;19928;-70
2022/05/03 08:58:28;;;;;;;;;;;;;;;;;;5047607;28;19929;-70
2022/05/03 09:00:54;;;;;;;;;;;;;;;;;;5047278;28;20028;-71
2022/05/03 09:03:21;;;;;;;;;;;;;;;;;;5046569;28;19933;-70
2022/05/03 09:05:48;;;;;;;;;;;;;;;;;;5047192;28;20024;-69
2022/05/03 09:08:14;;;;;;;;;;;;;;;;;;5046895;28;20413;-71
2022/05/03 09:10:42;;;;;;;;;;;;;;;;;;5047098;28;19952;-69
2022/05/03 09:13:08;;;;;;;;;;;;;;;;;;5045987;28;19972;-68
2022/05/03 09:15:34;;;;;;;;;;;;;;;;;;5043236;28;19940;-70
2022/05/03 09:18:00;;;;;;;;;;;;;;;;;;5042312;28;20027;-69
2022/05/03 09:25:54;;;;;;;;;;;;;;;;;;5046894;28;19924;-69
2022/05/03 09:28:20;;;;;;;;;;;;;;;;;;5045996;28;19933;-70
2022/05/03 09:30:47;;;;;;;;;;;;;;;;;;5046507;28;20302;-69
2022/05/03 09:33:13;;;;;;;;;;;;;;;;;;5046154;28;19928;-69
2022/05/03 09:35:39;;;;;;;;;;;;;;;;;;5048351;28;19951;-69
2022/05/03 09:38:05;;;;;;;;;;;;;;;;;;5048556;28;19928;-69
2022/05/03 09:40:32;;;;;;;;;;;;;;;;;;5047078;28;19968;-69
2022/05/03 09:42:58;;;;;;;;;;;;;;;;;;5041617;28;19929;-69
2022/05/03 09:45:24;;;;;;;;;;;;;;;;;;5039851;28;20032;-69
2022/05/03 09:47:51;;;;;;;;;;;;;;;;;;5044849;28;19932;-69
2022/05/03 09:50:17;;;;;;;;;;;;;;;;;;5045468;28;20031;-69
2022/05/03 09:52:44;;;;;;;;;;;;;;;;;;5045719;28;19933;-69
2022/05/03 09:55:11;;;;;;;;;;;;;;;;;;5046026;28;19928;-69
2022/05/03 09:57:37;;;;;;;;;;;;;;;;;;5045848;28;19925;-69
2022/05/03 10:00:03;;;;;;;;;;;;;;;;;;5045784;28;19955;-69
2022/05/03 10:02:29;;;;;;;;;;;;;;;;;;5045712;28;19940;-69
2022/05/03 10:04:56;;;;;;;;;;;;;;;;;;5044865;28;19932;-68
2022/05/03 10:07:22;;;;;;;;;;;;;;;;;;5045579;28;20032;-69
2022/05/03 10:09:49;;;;;;;;;;;;;;;;;;5045561;28;19936;-69
2022/05/03 10:12:15;;;;;;;;;;;;;;;;;;5045991;28;19951;-69
2022/05/03 10:14:42;;;;;;;;;;;;;;;;;;5045546;28;19929;-68
2022/05/03 10:22:36;;;;;;;;;;;;;;;;;;5043500;28;19924;-68
2022/05/03 10:25:04;;;;;;;;;;;;;;;;;;5046329;28;19929;-69
2022/05/03 10:27:32;;;;;;;;;;;;;;;;;;5043233;28;19925;-68
2022/05/03 10:29:58;;;;;;;;;;;;;;;;;;5045819;28;20269;-69
2022/05/03 10:32:24;;;;;;;;;;;;;;;;;;5046005;28;20319;-69
2022/05/03 10:34:52;;;;;;;;;;;;;;;;;;5045393;28;19950;-68
2022/05/03 10:37:19;;;;;;;;;;;;;;;;;;5045793;28;19940;-68
2022/05/03 10:39:45;;;;;;;;;;;;;;;;;;5044628;28;19987;-68
2022/05/03 10:42:11;;;;;;;;;;;;;;;;;;5045425;28;19924;-68
2022/05/03 10:44:37;;;;;;;;;;;;;;;;;;5045231;28;19924;-68
2022/05/03 10:47:04;;;;;;;;;;;;;;;;;;5045183;28;19925;-68
2022/05/03 10:49:31;;;;;;;;;;;;;;;;;;5045177;28;20416;-68
2022/05/03 10:51:57;;;;;;;;;;;;;;;;;;5045177;28;20366;-69
2022/05/03 10:54:23;;;;;;;;;;;;;;;;;;5045702;28;19939;-68
2022/05/03 10:56:49;;;;;;;;;;;;;;;;;;5045071;28;20304;-69
2022/05/03 10:59:15;;;;;;;;;;;;;;;;;;5045247;28;20323;-69
2022/05/03 11:01:42;;;;;;;;;;;;;;;;;;5045331;28;19982;-69
2022/05/03 11:04:08;;;;;;;;;;;;;;;;;;5045281;28;19929;-68
2022/05/03 11:06:34;;;;;;;;;;;;;;;;;;5044235;28;19929;-68
2022/05/03 11:09:02;;;;;;;;;;;;;;;;;;5045307;28;19928;-70
2022/05/03 11:11:28;;;;;;;;;;;;;;;;;;5040717;28;19987;-68
2022/05/03 11:13:54;;;;;;;;;;;;;;;;;;5042883;28;20320;-68
2022/05/03 11:16:21;;;;;;;;;;;;;;;;;;5046039;28;19933;-68
2022/05/03 11:18:47;;;;;;;;;;;;;;;;;;5044630;28;19936;-68
2022/05/03 11:21:13;;;;;;;;;;;;;;;;;;5040980;28;19929;-68
2022/05/03 11:23:39;;;;;;;;;;;;;;;;;;5044866;28;19948;-68
2022/05/03 11:26:05;;;;;;;;;;;;;;;;;;5044361;28;19929;-68
2022/05/03 11:28:31;;;;;;;;;;;;;;;;;;5044262;28;19933;-68
2022/05/03 11:30:57;;;;;;;;;;;;;;;;;;5045036;28;19928;-68
2022/05/03 11:33:24;;;;;;;;;;;;;;;;;;5044111;28;19929;-68
2022/05/03 11:35:50;;;;;;;;;;;;;;;;;;5044254;28;19936;-67
2022/05/03 11:38:16;;;;;;;;;;;;;;;;;;5044190;28;19928;-68
2022/05/03 11:40:42;;;;;;;;;;;;;;;;;;5045086;28;19928;-68
2022/05/03 11:43:12;;;;;;;;;;;;;;;;;;5043893;28;20062;-68
2022/05/03 11:45:39;;;;;;;;;;;;;;;;;;5045178;28;19933;-69
2022/05/03 11:48:05;;;;;;;;;;;;;;;;;;5044631;28;19928;-68
2022/05/03 11:56:01;;;;;;;;;;;;;;;;;;5022763;28;20006;-68
2022/05/03 11:58:27;;;;;;;;;;;;;;;;;;5048785;28;19983;-68
2022/05/03 12:00:54;;;;;;;;;;;;;;;;;;5054866;28;19924;-68
2022/05/03 12:03:20;;;;;;;;;;;;;;;;;;5050712;28;20385;-68
2022/05/03 12:05:47;;;;;;;;;;;;;;;;;;5045080;28;19932;-68
2022/05/03 12:08:13;;;;;;;;;;;;;;;;;;5047904;28;19935;-68
2022/05/03 12:10:40;;;;;;;;;;;;;;;;;;5048219;28;19959;-68
2022/05/03 12:13:07;;;;;;;;;;;;;;;;;;5047644;28;19929;-68
2022/05/03 12:15:33;;;;;;;;;;;;;;;;;;5048275;28;19925;-68
2022/05/03 12:17:59;;;;;;;;;;;;;;;;;;5038602;28;20241;-68
2022/05/03 12:20:25;;;;;;;;;;;;;;;;;;5044407;28;19933;-69
2022/05/03 12:22:51;;;;;;;;;;;;;;;;;;5045967;28;19936;-67
2022/05/03 12:25:18;;;;;;;;;;;;;;;;;;5048343;28;19928;-68
2022/05/03 12:27:44;;;;;;;;;;;;;;;;;;5048777;28;20415;-68
2022/05/03 12:30:10;;;;;;;;;;;;;;;;;;5050129;28;19928;-69
2022/05/03 12:32:36;;;;;;;;;;;;;;;;;;5048363;28;20462;-69
2022/05/03 12:35:02;;;;;;;;;;;;;;;;;;5049090;28;20324;-67
2022/05/03 12:37:28;;;;;;;;;;;;;;;;;;5047929;28;19933;-69
2022/05/03 12:39:55;;;;;;;;;;;;;;;;;;5047669;28;19959;-68
2022/05/03 12:42:21;;;;;;;;;;;;;;;;;;5047761;28;19933;-68
2022/05/03 12:44:47;;;;;;;;;;;;;;;;;;5047552;28;19932;-69
2022/05/03 12:47:13;;;;;;;;;;;;;;;;;;5049688;28;20053;-69
2022/05/03 12:49:39;;;;;;;;;;;;;;;;;;5047004;28;19933;-69
2022/05/03 12:52:05;;;;;;;;;;;;;;;;;;5047050;28;19950;-69
2022/05/03 12:54:32;;;;;;;;;;;;;;;;;;5046940;28;19936;-69
2022/05/03 12:59:42;;;;;;;;;;;;;;;;;;5042282;28;19920;-69
2022/05/03 13:02:08;;;;;;;;;;;;;;;;;;5047174;28;19929;-68
2022/05/03 13:04:34;;;;;;;;;;;;;;;;;;5048382;28;19936;-70
2022/05/03 13:07:01;;;;;;;;;;;;;;;;;;5049462;28;20036;-69
2022/05/03 13:09:27;;;;;;;;;;;;;;;;;;5049023;28;19929;-68
2022/05/03 13:11:53;;;;;;;;;;;;;;;;;;5048308;28;20031;-69
2022/05/03 13:14:19;;;;;;;;;;;;;;;;;;5048007;28;19932;-69
2022/05/03 13:16:45;;;;;;;;;;;;;;;;;;4722396;22;9999879;-67
2022/05/03 13:19:12;;;;;;;;;;;;;;;;;;5066049;28;19959;-67
2022/05/03 13:21:39;;;;;;;;;;;;;;;;;;5059843;28;20304;-67
2022/05/03 13:24:06;;;;;;;;;;;;;;;;;;5067873;28;20021;-67
2022/05/03 13:26:33;;;;;;;;;;;;;;;;;;5069164;28;19952;-68
2022/05/03 13:28:59;;;;;;;;;;;;;;;;;;5065582;28;20555;-68
2022/05/03 13:31:25;;;;;;;;;;;;;;;;;;5069281;28;20356;-68
2022/05/03 13:33:51;;;;;;;;;;;;;;;;;;5069373;28;19932;-66
2022/05/03 13:41:45;;;;;;;;;;;;;;;;;;5070107;28;19919;-67
2022/05/03 13:44:11;;;;;;;;;;;;;;;;;;5060351;28;20353;-67
2022/05/03 13:46:38;;;;;;;;;;;;;;;;;;5058143;28;19951;-67
2022/05/03 13:49:04;;;;;;;;;;;;;;;;;;5066858;28;20010;-67
2022/05/03 13:51:30;;;;;;;;;;;;;;;;;;5069917;28;19987;-67
2022/05/03 13:53:57;;;;;;;;;;;;;;;;;;5069949;28;19931;-67
2022/05/03 13:56:23;;;;;;;;;;;;;;;;;;5069739;28;19928;-67
2022/05/03 13:58:49;;;;;;;;;;;;;;;;;;5069201;28;19932;-66
2022/05/03 14:01:15;;;;;;;;;;;;;;;;;;5069014;28;19933;-68
2022/05/03 14:03:41;;;;;;;;;;;;;;;;;;5069297;28;20039;-67
2022/05/03 14:06:08;;;;;;;;;;;;;;;;;;5069766;28;19924;-67
2022/05/03 14:08:34;;;;;;;;;;;;;;;;;;5069951;28;19928;-66
2022/05/03 14:11:00;;;;;;;;;;;;;;;;;;5070089;28;19935;-66
2022/05/03 14:13:26;;;;;;;;;;;;;;;;;;5068724;28;19968;-68
2022/05/03 14:15:52;;;;;;;;;;;;;;;;;;5069030;28;19924;-67
2022/05/03 14:18:19;;;;;;;;;;;;;;;;;;5066647;28;19936;-66
2022/05/03 14:20:45;;;;;;;;;;;;;;;;;;5070579;28;19924;-67
2022/05/03 14:23:11;;;;;;;;;;;;;;;;;;5070469;28;19928;-67
2022/05/03 14:25:37;;;;;;;;;;;;;;;;;;5070698;28;19924;-66
2022/05/03 14:28:03;;;;;;;;;;;;;;;;;;5069573;28;19931;-67
2022/05/03 14:30:30;;;;;;;;;;;;;;;;;;5065505;28;20376;-66
2022/05/03 14:32:56;;;;;;;;;;;;;;;;;;5069734;28;19946;-66
2022/05/03 14:35:22;;;;;;;;;;;;;;;;;;5069659;28;19925;-67
2022/05/03 14:37:48;;;;;;;;;;;;;;;;;;5066306;28;20309;-67
2022/05/03 14:40:14;;;;;;;;;;;;;;;;;;5060889;28;19924;-66
2022/05/03 14:42:41;;;;;;;;;;;;;;;;;;5053990;28;19929;-66
2022/05/03 14:45:07;;;;;;;;;;;;;;;;;;5050981;28;19951;-67
2022/05/03 14:47:33;;;;;;;;;;;;;;;;;;5061185;28;19924;-69
2022/05/03 14:49:59;;;;;;;;;;;;;;;;;;5058546;28;19924;-66
2022/05/03 14:52:25;;;;;;;;;;;;;;;;;;5061115;28;19970;-67
2022/05/03 14:54:51;;;;;;;;;;;;;;;;;;5061541;28;19935;-67
2022/05/03 15:02:56;;;;;;;;;;;;;;;;;;5061740;28;20129;-66
2022/05/03 15:05:23;;;;;;;;;;;;;;;;;;5057601;28;19938;-66
2022/05/03 15:07:50;;;;;;;;;;;;;;;;;;5059470;28;19924;-66
2022/05/03 15:10:16;;;;;;;;;;;;;;;;;;5059524;28;19968;-66
2022/05/03 15:12:42;;;;;;;;;;;;;;;;;;5060910;28;19975;-66
2022/05/03 15:15:08;;;;;;;;;;;;;;;;;;5057824;28;19925;-67
2022/05/03 15:17:34;;;;;;;;;;;;;;;;;;5060967;28;20373;-66
2022/05/03 15:20:00;;;;;;;;;;;;;;;;;;5060204;28;20655;-65
2022/05/03 15:25:08;;;;;;;;;;;;;;;;;;5063938;28;19924;-67
2022/05/03 15:27:34;;;;;;;;;;;;;;;;;;5062733;28;19978;-66
2022/05/03 15:30:03;;;;;;;;;;;;;;;;;;5069320;28;20385;-67
2022/05/03 15:32:29;;;;;;;;;;;;;;;;;;5063101;28;19969;-69
2022/05/03 15:34:55;;;;;;;;;;;;;;;;;;5069408;28;19924;-68
2022/05/03 15:37:21;;;;;;;;;;;;;;;;;;5065866;28;19932;-66
2022/05/03 15:39:47;;;;;;;;;;;;;;;;;;5059509;28;19924;-66
2022/05/03 15:42:13;;;;;;;;;;;;;;;;;;5062787;28;19925;-66
2022/05/03 15:44:40;;;;;;;;;;;;;;;;;;5053648;28;19956;-66
2022/05/03 15:47:06;;;;;;;;;;;;;;;;;;5057269;28;20034;-67
2022/05/03 15:49:32;;;;;;;;;;;;;;;;;;5056914;28;19929;-66
2022/05/03 15:51:58;;;;;;;;;;;;;;;;;;5062322;28;20349;-65
2022/05/03 15:54:25;;;;;;;;;;;;;;;;;;5064719;28;20082;-66
2022/05/03 15:56:51;;;;;;;;;;;;;;;;;;5066488;28;19924;-65
2022/05/03 15:59:17;;;;;;;;;;;;;;;;;;5056790;28;20152;-65
2022/05/03 16:01:43;;;;;;;;;;;;;;;;;;5063298;28;19924;-67
2022/05/03 16:04:10;;;;;;;;;;;;;;;;;;5059976;28;19932;-67
2022/05/03 16:06:36;;;;;;;;;;;;;;;;;;5063170;28;19933;-66
2022/05/03 16:09:03;;;;;;;;;;;;;;;;;;5064564;28;19932;-66
2022/05/03 16:11:29;;;;;;;;;;;;;;;;;;5061531;28;20087;-67
2022/05/03 16:13:55;;;;;;;;;;;;;;;;;;5060947;28;19925;-67
2022/05/03 16:16:21;;;;;;;;;;;;;;;;;;5070614;28;20456;-67
2022/05/03 16:18:47;;;;;;;;;;;;;;;;;;5077923;28;19947;-67
2022/05/03 16:21:13;;;;;;;;;;;;;;;;;;5074802;28;20139;-65
2022/05/03 16:23:40;;;;;;;;;;;;;;;;;;5076125;28;19964;-66
2022/05/03 16:26:06;;;;;;;;;;;;;;;;;;5076504;28;19935;-66
2022/05/03 16:28:33;;;;;;;;;;;;;;;;;;5073295;28;19948;-66
2022/05/03 16:31:00;;;;;;;;;;;;;;;;;;5073262;28;19966;-66
2022/05/03 16:33:26;;;;;;;;;;;;;;;;;;5074199;28;19925;-66
2022/05/03 16:35:52;;;;;;;;;;;;;;;;;;5070095;28;20018;-67
2022/05/03 16:43:47;;;;;;;;;;;;;;;;;;5069911;28;19924;-67
2022/05/03 16:46:14;;;;;;;;;;;;;;;;;;5071980;28;20020;-66
2022/05/03 16:48:40;;;;;;;;;;;;;;;;;;5072605;28;20004;-66
2022/05/03 16:51:08;;;;;;;;;;;;;;;;;;5073095;28;19924;-66
2022/05/03 16:53:34;;;;;;;;;;;;;;;;;;5066550;28;19982;-66
2022/05/03 16:56:00;;;;;;;;;;;;;;;;;;5072488;28;19952;-66
2022/05/03 16:58:27;;;;;;;;;;;;;;;;;;5064271;28;19924;-66
2022/05/03 17:00:53;;;;;;;;;;;;;;;;;;5064351;28;19925;-66
2022/05/03 17:03:20;;;;;;;;;;;;;;;;;;5064407;28;20379;-66
2022/05/03 17:05:46;;;;;;;;;;;;;;;;;;5067264;28;19931;-67
2022/05/03 17:08:12;;;;;;;;;;;;;;;;;;5063488;28;19928;-66
2022/05/03 17:10:38;;;;;;;;;;;;;;;;;;5064273;28;19939;-66
2022/05/03 17:13:04;;;;;;;;;;;;;;;;;;5064176;28;19935;-67
2022/05/03 17:15:30;;;;;;;;;;;;;;;;;;5064224;28;19925;-66
2022/05/03 17:17:57;;;;;;;;;;;;;;;;;;5060429;28;19946;-65
2022/05/03 17:20:23;;;;;;;;;;;;;;;;;;5061364;28;19928;-65
2022/05/03 17:22:49;;;;;;;;;;;;;;;;;;5059021;28;20185;-66
2022/05/03 17:25:15;;;;;;;;;;;;;;;;;;5066492;28;19935;-67
2022/05/03 17:27:43;;;;;;;;;;;;;;;;;;5057455;28;19928;-66
2022/05/03 17:30:09;;;;;;;;;;;;;;;;;;5064417;28;19982;-67
2022/05/03 17:32:36;;;;;;;;;;;;;;;;;;5066462;28;19925;-65
2022/05/03 17:35:02;;;;;;;;;;;;;;;;;;5055280;28;19936;-65
2022/05/03 17:37:28;;;;;;;;;;;;;;;;;;5064279;28;19933;-66